METAR AND TAF INFORMATION
METAR FOR LTBH
ADDS - METARS form results

(0854 UTC 21 March 2019)
Data provider http://aviationweather.gov/metar/data/
 
Forecast for: LTBH (CANAKKALE , TR)
Text: TAF LTBH 210740Z 2109/2118 04018G30KT 9999 SCT030
Forecast period: 0900 to 1800 UTC 21 March 2019
Forecast type: FROM: standard forecast or significant change
Winds: from the NE (40 degrees) at 21 MPH (18 knots; 9.3 m/s)
gusting to 34 MPH (30 knots; 15.4 m/s)
Visibility: 6 or more miles 10+ km)
Ceiling: at least 12,000 feet AGL
Clouds: scattered clouds at 3000 feet AGL
Weather: no significant weather forecast for this period

 AIRPORT MAP

 RUNWAY INFORMATION
Runway 04 Runway length 5905 ft Runway width 98 ft
Runway elevation 12 ft Runway displaced threshold 0 ft Runway heading 41
Runway 22 Runway length 5905 ft Runway width 98 ft
Runway elevation 21 ft Runway displaced threshold 0 ft Runway heading 221

 AIRPORT FREQUENCIES
Type APP Name YESILKOY A Frequency 122.1 MHZ
Type TWR Name TWR Frequency 123.6 MHZ

 AIRPORT NEAR NAVIGATION AIDS
Type VOR-DME Name Canakkale Frequency 111200 KHZ
Type NDB Name Canakkale Frequency 422 KHZ



Powered by Virtual Airlines Manager [v2.6.2]